createdAt,value
2023-06-19T00:00:16.800Z,101291.47
2023-06-19T00:02:45.535Z,101291.13
2023-06-19T00:05:14.573Z,101287.94
2023-06-19T00:07:42.262Z,101284.09
2023-06-19T00:10:11.406Z,101282.88
2023-06-19T00:12:39.041Z,101280.38
2023-06-19T00:15:08.563Z,101281.69
2023-06-19T00:17:38.691Z,101274.31
2023-06-19T00:20:07.803Z,101273.72
2023-06-19T00:22:35.561Z,101277.13
2023-06-19T00:25:03.411Z,101270.78
2023-06-19T00:27:32.506Z,101262.31
2023-06-19T00:30:03.413Z,101267.72
2023-06-19T00:32:31.724Z,101272.91
2023-06-19T00:35:02.000Z,101273.94
2023-06-19T00:37:33.159Z,101261.50
2023-06-19T00:40:00.885Z,101260.09
2023-06-19T00:42:28.525Z,101250.94
2023-06-19T00:44:57.777Z,101254.47
2023-06-19T00:47:26.778Z,101253.41
2023-06-19T00:49:54.826Z,101244.72
2023-06-19T00:52:22.483Z,101244.94
2023-06-19T00:54:50.247Z,101253.88
2023-06-19T00:57:18.073Z,101248.00
2023-06-19T00:59:45.847Z,101246.38
2023-06-19T01:02:15.192Z,101252.81
2023-06-19T01:04:42.923Z,101249.88
2023-06-19T01:07:14.763Z,101241.78
2023-06-19T01:09:48.768Z,101242.03
2023-06-19T01:12:20.352Z,101233.34
2023-06-19T01:14:55.172Z,101233.91
2023-06-19T01:17:24.782Z,101226.88
2023-06-19T01:19:52.696Z,101217.94
2023-06-19T01:22:31.589Z,101206.94
2023-06-19T01:24:59.566Z,101205.28
2023-06-19T01:27:31.017Z,101198.47
2023-06-19T01:30:00.229Z,101193.91
2023-06-19T01:32:33.675Z,101190.38
2023-06-19T01:35:03.242Z,101187.94
2023-06-19T01:37:34.465Z,101178.19
2023-06-19T01:40:06.935Z,101181.69
2023-06-19T01:42:36.233Z,101175.47
2023-06-19T01:45:04.843Z,101167.84
2023-06-19T01:47:32.743Z,101162.66
2023-06-19T01:50:00.501Z,101170.19
2023-06-19T01:52:28.538Z,101166.09
2023-06-19T01:54:57.856Z,101164.13
2023-06-19T01:57:25.804Z,101165.16
2023-06-19T01:59:53.454Z,101155.53
2023-06-19T02:02:21.132Z,101154.72
2023-06-19T02:04:48.887Z,101159.28
2023-06-19T02:07:16.653Z,101149.53
2023-06-19T02:09:44.322Z,101146.28
2023-06-19T02:12:13.468Z,101149.19
2023-06-19T02:14:41.147Z,101146.50
2023-06-19T02:17:08.807Z,101154.00
2023-06-19T02:19:36.682Z,101153.91
2023-06-19T02:22:04.634Z,101168.66
2023-06-19T02:24:32.357Z,101173.00
2023-06-19T02:27:00.084Z,101174.88
2023-06-19T02:29:30.601Z,101164.91
2023-06-19T02:31:58.271Z,101165.72
2023-06-19T02:34:26.414Z,101171.13
2023-06-19T02:36:54.340Z,101169.00
2023-06-19T02:39:22.949Z,101168.78
2023-06-19T02:41:50.641Z,101157.75
2023-06-19T02:44:18.267Z,101161.84
2023-06-19T02:46:47.394Z,101155.53
2023-06-19T02:49:15.160Z,101155.41
2023-06-19T02:51:42.840Z,101155.28
2023-06-19T02:54:10.589Z,101147.91
2023-06-19T02:56:38.250Z,101151.28
2023-06-19T02:59:06.055Z,101151.63
2023-06-19T03:01:35.216Z,101153.97
2023-06-19T03:04:04.475Z,101146.56
2023-06-19T03:06:34.412Z,101155.94
2023-06-19T03:09:02.037Z,101154.06
2023-06-19T03:11:29.737Z,101150.97
2023-06-19T03:13:58.559Z,101145.44
2023-06-19T03:16:26.233Z,101146.34
2023-06-19T03:18:53.909Z,101150.66
2023-06-19T03:21:23.171Z,101147.56
2023-06-19T03:23:51.277Z,101154.00
2023-06-19T03:26:20.763Z,101148.88
2023-06-19T03:28:48.694Z,101154.25
2023-06-19T03:31:17.602Z,101155.00
2023-06-19T03:33:45.364Z,101148.38
2023-06-19T03:36:13.073Z,101141.88
2023-06-19T03:38:42.194Z,101133.44
2023-06-19T03:41:09.965Z,101130.53
2023-06-19T03:43:37.644Z,101124.72
2023-06-19T03:46:05.412Z,101123.31
2023-06-19T03:48:33.115Z,101134.91
2023-06-19T03:51:01.861Z,101125.63
2023-06-19T03:53:29.709Z,101130.97
2023-06-19T03:55:58.848Z,101123.34
2023-06-19T03:58:26.630Z,101127.88
2023-06-19T04:00:54.347Z,101121.63
2023-06-19T04:03:22.185Z,101124.50
2023-06-19T04:05:49.954Z,101122.50
2023-06-19T04:08:17.858Z,101120.78
2023-06-19T04:10:45.714Z,101112.50
2023-06-19T04:13:14.831Z,101120.06
2023-06-19T04:15:45.464Z,101113.16
2023-06-19T04:18:14.229Z,101108.56
2023-06-19T04:20:42.196Z,101104.56
2023-06-19T04:23:09.885Z,101104.00
2023-06-19T04:25:37.658Z,101103.09
2023-06-19T04:28:05.730Z,101114.22
2023-06-19T04:30:34.740Z,101119.81
2023-06-19T04:33:02.644Z,101106.78
2023-06-19T04:35:30.322Z,101111.69
2023-06-19T04:38:02.176Z,101112.53
2023-06-19T04:40:29.828Z,101111.78
2023-06-19T04:42:57.497Z,101102.66
2023-06-19T04:45:25.203Z,101103.72
2023-06-19T04:47:54.605Z,101102.75
2023-06-19T04:50:23.068Z,101096.84
2023-06-19T04:52:51.833Z,101090.03
2023-06-19T04:55:20.661Z,101080.09
2023-06-19T04:57:48.525Z,101089.09
2023-06-19T05:00:20.107Z,101093.72
2023-06-19T05:02:48.580Z,101085.50
2023-06-19T05:05:18.800Z,101091.34
2023-06-19T05:07:47.836Z,101089.81
2023-06-19T05:10:15.628Z,101091.19
2023-06-19T05:12:43.325Z,101089.03
2023-06-19T05:15:12.170Z,101094.78
2023-06-19T05:17:40.385Z,101086.09
2023-06-19T05:20:09.408Z,101091.03
2023-06-19T05:22:39.038Z,101092.41
2023-06-19T05:25:07.728Z,101099.94
2023-06-19T05:27:35.409Z,101097.22
2023-06-19T05:30:03.384Z,101095.44
2023-06-19T05:32:31.113Z,101091.75
2023-06-19T05:34:58.940Z,101091.47
2023-06-19T05:37:28.187Z,101087.44
2023-06-19T05:39:58.217Z,101081.53
2023-06-19T05:42:25.856Z,101087.00
2023-06-19T05:44:53.518Z,101082.41
2023-06-19T05:47:21.885Z,101088.41
2023-06-19T05:49:50.812Z,101076.75
2023-06-19T05:52:18.882Z,101088.66
2023-06-19T05:54:46.556Z,101088.66
2023-06-19T05:57:17.179Z,101081.03
2023-06-19T05:59:44.871Z,101086.06
2023-06-19T06:02:12.704Z,101089.81
2023-06-19T06:04:40.626Z,101089.09
2023-06-19T06:07:09.085Z,101091.81
2023-06-19T06:09:36.895Z,101089.91
2023-06-19T06:12:05.124Z,101095.34
2023-06-19T06:14:34.125Z,101092.13
2023-06-19T06:17:01.888Z,101093.75
2023-06-19T06:19:31.601Z,101087.50
2023-06-19T06:22:00.756Z,101085.38
2023-06-19T06:24:28.514Z,101098.16
2023-06-19T06:26:56.405Z,101096.03
2023-06-19T06:29:24.056Z,101092.19
2023-06-19T06:31:53.825Z,101097.91
2023-06-19T06:34:21.560Z,101098.47
2023-06-19T06:37:00.819Z,101088.09
2023-06-19T06:39:32.826Z,101090.53
2023-06-19T06:42:00.486Z,101094.13
2023-06-19T06:44:28.660Z,101106.09
2023-06-19T06:46:57.705Z,101094.78
2023-06-19T06:49:25.338Z,101097.53
2023-06-19T06:51:54.872Z,101092.63
2023-06-19T06:54:23.862Z,101094.03
2023-06-19T06:56:53.738Z,101095.16
2023-06-19T06:59:21.537Z,101095.28
2023-06-19T07:01:49.157Z,101092.66
2023-06-19T07:04:18.167Z,101090.00
2023-06-19T07:06:45.957Z,101082.53
2023-06-19T07:09:14.074Z,101085.59
2023-06-19T07:11:41.859Z,101091.59
2023-06-19T07:14:09.514Z,101101.72
2023-06-19T07:16:37.226Z,101107.19
2023-06-19T07:19:05.052Z,101118.13
2023-06-19T07:21:34.951Z,101115.84
2023-06-19T07:24:03.106Z,101122.22
2023-06-19T07:26:30.788Z,101119.34
2023-06-19T07:28:58.605Z,101110.13
2023-06-19T07:31:26.319Z,101103.63
2023-06-19T07:33:54.070Z,101106.88
2023-06-19T07:36:21.765Z,101091.63
2023-06-19T07:38:51.021Z,101098.13
2023-06-19T07:41:18.816Z,101093.75
2023-06-19T07:43:46.488Z,101089.06
2023-06-19T07:46:14.277Z,101095.19
2023-06-19T07:48:41.960Z,101100.28
2023-06-19T07:51:09.644Z,101089.41
2023-06-19T07:53:37.311Z,101095.06
2023-06-19T07:56:06.457Z,101086.06
2023-06-19T07:58:34.178Z,101085.16
2023-06-19T08:01:01.859Z,101087.88
2023-06-19T08:03:29.894Z,101083.66
2023-06-19T08:05:57.821Z,101086.28
2023-06-19T08:08:25.730Z,101077.28
2023-06-19T08:10:53.681Z,101079.44
2023-06-19T08:13:22.720Z,101078.25
2023-06-19T08:15:50.549Z,101070.13
2023-06-19T08:18:18.546Z,101079.06
2023-06-19T08:20:46.263Z,101076.41
2023-06-19T08:23:13.914Z,101081.88
2023-06-19T08:25:41.585Z,101084.47
2023-06-19T08:28:10.148Z,101088.88
2023-06-19T08:30:39.329Z,101083.91
2023-06-19T08:33:07.052Z,101076.53
2023-06-19T08:35:34.786Z,101082.69
2023-06-19T08:38:02.425Z,101075.56
2023-06-19T08:40:30.105Z,101071.69
2023-06-19T08:42:58.019Z,101063.59
2023-06-19T08:45:27.830Z,101065.94
2023-06-19T08:48:01.879Z,101060.59
2023-06-19T08:50:29.542Z,101056.88
2023-06-19T08:52:57.232Z,101057.44
2023-06-19T08:55:24.977Z,101058.63
2023-06-19T08:57:53.854Z,101076.34
2023-06-19T09:00:26.814Z,101072.94
2023-06-19T09:03:13.521Z,101069.63
2023-06-19T09:05:50.832Z,101068.75
2023-06-19T09:08:19.787Z,101060.03
2023-06-19T09:11:00.091Z,101053.66
2023-06-19T09:13:29.795Z,101057.28
2023-06-19T09:16:02.931Z,101070.94
2023-06-19T09:18:33.975Z,101069.81
2023-06-19T09:21:01.720Z,101052.94
2023-06-19T09:23:29.588Z,101054.06
2023-06-19T09:25:59.922Z,101050.75
2023-06-19T09:28:29.410Z,101055.91
2023-06-19T09:30:59.770Z,101052.09
2023-06-19T09:33:28.544Z,101049.56
2023-06-19T09:35:58.730Z,101056.97
2023-06-19T09:38:29.568Z,101063.66
2023-06-19T09:41:00.397Z,101060.41
2023-06-19T09:43:35.263Z,101060.50
2023-06-19T09:46:05.013Z,101058.91
2023-06-19T09:48:35.812Z,101060.59
2023-06-19T09:51:14.190Z,101064.84
2023-06-19T09:53:42.453Z,101056.81
2023-06-19T09:56:11.102Z,101052.75
2023-06-19T09:58:39.663Z,101049.91
2023-06-19T10:01:08.616Z,101053.94
2023-06-19T10:03:37.802Z,101052.00
2023-06-19T10:06:07.464Z,101046.63
2023-06-19T10:08:42.068Z,101049.72
2023-06-19T10:11:09.899Z,101050.16
2023-06-19T10:13:39.964Z,101054.59
2023-06-19T10:16:08.207Z,101048.00
2023-06-19T10:18:47.137Z,101045.09
2023-06-19T10:21:19.435Z,101050.81
2023-06-19T10:23:55.964Z,101044.13
2023-06-19T10:26:32.292Z,101038.84
2023-06-19T10:29:00.052Z,101042.81
2023-06-19T10:31:29.833Z,101033.81
2023-06-19T10:33:57.837Z,101037.28
2023-06-19T10:36:27.573Z,101036.00
2023-06-19T10:38:56.371Z,101033.06
2023-06-19T10:41:26.074Z,101036.50
2023-06-19T10:43:58.521Z,101044.31
2023-06-19T10:46:31.223Z,101035.94
2023-06-19T10:49:02.523Z,101030.47
2023-06-19T10:51:32.498Z,101029.97
2023-06-19T10:54:00.380Z,101032.25
2023-06-19T10:56:28.376Z,101026.59
2023-06-19T10:59:00.292Z,101028.50
2023-06-19T11:01:35.171Z,101026.25
2023-06-19T11:04:04.700Z,101031.88
2023-06-19T11:06:36.565Z,101029.78
2023-06-19T11:09:06.173Z,101033.31
2023-06-19T11:11:38.329Z,101030.00
2023-06-19T11:14:06.441Z,101029.19
2023-06-19T11:16:34.762Z,101026.34
2023-06-19T11:19:03.149Z,101028.00
2023-06-19T11:21:39.496Z,101020.31
2023-06-19T11:24:12.347Z,101021.75
2023-06-19T11:26:40.879Z,101027.34
2023-06-19T11:29:19.419Z,101027.47
2023-06-19T11:31:48.503Z,101031.25
2023-06-19T11:34:16.672Z,101035.03
2023-06-19T11:36:46.887Z,101032.16
2023-06-19T11:39:17.139Z,101036.97
2023-06-19T11:41:46.291Z,101040.28
2023-06-19T11:44:13.968Z,101044.38
2023-06-19T11:46:42.034Z,101059.81
2023-06-19T11:49:11.210Z,101054.44
2023-06-19T11:51:39.006Z,101055.31
2023-06-19T11:54:10.533Z,101050.97
2023-06-19T11:56:38.727Z,101050.66
2023-06-19T11:59:06.795Z,101042.03
2023-06-19T12:01:35.744Z,101051.72
2023-06-19T12:04:04.219Z,101047.00
2023-06-19T12:06:32.498Z,101053.41
2023-06-19T12:09:00.867Z,101047.00
2023-06-19T12:11:29.851Z,101047.81
2023-06-19T12:13:58.849Z,101042.47
2023-06-19T12:16:26.984Z,101044.03
2023-06-19T12:18:55.446Z,101049.38
2023-06-19T12:21:34.908Z,101041.13
2023-06-19T12:24:06.431Z,101047.47
2023-06-19T12:26:37.703Z,101046.59
2023-06-19T12:29:05.925Z,101038.72
2023-06-19T12:31:34.882Z,101040.41
2023-06-19T12:34:08.130Z,101043.31
2023-06-19T12:36:48.940Z,101045.06
2023-06-19T12:39:17.926Z,101042.38
2023-06-19T12:41:46.988Z,101046.25
2023-06-19T12:44:14.749Z,101051.13
2023-06-19T12:46:43.475Z,101056.06
2023-06-19T12:49:11.399Z,101047.38
2023-06-19T12:51:39.141Z,101054.28
2023-06-19T12:54:06.885Z,101049.38
2023-06-19T12:56:34.736Z,101051.59
2023-06-19T12:59:03.790Z,101055.31
2023-06-19T13:01:31.576Z,101051.78
2023-06-19T13:03:59.398Z,101051.94
2023-06-19T13:06:27.128Z,101052.41
2023-06-19T13:08:55.213Z,101060.34
2023-06-19T13:11:22.922Z,101080.56
2023-06-19T13:13:50.669Z,101083.78
2023-06-19T13:16:27.137Z,101087.97
2023-06-19T13:19:07.892Z,101088.25
2023-06-19T13:21:36.944Z,101095.66
2023-06-19T13:24:05.151Z,101095.22
2023-06-19T13:26:32.877Z,101109.97
2023-06-19T13:29:01.833Z,101115.16
2023-06-19T13:31:30.957Z,101118.69
2023-06-19T13:33:59.653Z,101122.28
2023-06-19T13:36:27.975Z,101124.88
2023-06-19T13:38:56.069Z,101125.03
2023-06-19T13:41:24.834Z,101134.25
2023-06-19T13:43:55.012Z,101134.94
2023-06-19T13:46:23.700Z,101130.59
2023-06-19T13:48:53.430Z,101129.28
2023-06-19T13:51:21.674Z,101137.75
2023-06-19T13:53:49.929Z,101153.41
2023-06-19T13:56:17.942Z,101159.78
2023-06-19T13:58:46.083Z,101155.66
2023-06-19T14:01:13.889Z,101151.94
2023-06-19T14:03:41.746Z,101160.06
2023-06-19T14:06:11.014Z,101165.44
2023-06-19T14:08:40.721Z,101169.13
2023-06-19T14:11:08.721Z,101166.09
2023-06-19T14:13:36.501Z,101164.66
2023-06-19T14:16:04.439Z,101173.88
2023-06-19T14:18:32.129Z,101176.00
2023-06-19T14:20:59.832Z,101170.13
2023-06-19T14:23:28.910Z,101172.63
2023-06-19T14:25:56.607Z,101162.16
2023-06-19T14:28:24.302Z,101172.41
2023-06-19T14:30:51.933Z,101172.56
2023-06-19T14:33:19.588Z,101171.94
2023-06-19T14:35:47.429Z,101176.63
2023-06-19T14:38:15.593Z,101174.69
2023-06-19T14:40:45.838Z,101175.94
2023-06-19T14:43:13.519Z,101181.88
2023-06-19T14:45:42.223Z,101181.25
2023-06-19T14:48:09.964Z,101187.75
2023-06-19T14:50:38.648Z,101181.97
2023-06-19T14:53:06.390Z,101184.09
2023-06-19T14:55:34.187Z,101180.47
2023-06-19T14:58:03.370Z,101187.78
2023-06-19T15:00:31.054Z,101193.16
2023-06-19T15:02:58.886Z,101191.31
2023-06-19T15:05:26.620Z,101190.34
2023-06-19T15:07:54.249Z,101186.59
2023-06-19T15:10:22.173Z,101185.41
2023-06-19T15:12:50.197Z,101190.84
2023-06-19T15:15:19.260Z,101195.28
2023-06-19T15:17:47.066Z,101187.47
2023-06-19T15:20:17.548Z,101194.00
2023-06-19T15:22:45.357Z,101192.34
2023-06-19T15:25:13.154Z,101191.75
2023-06-19T15:27:40.916Z,101203.75
2023-06-19T15:30:09.685Z,101195.56
2023-06-19T15:32:38.705Z,101202.00
2023-06-19T15:35:07.434Z,101198.53
2023-06-19T15:37:35.168Z,101202.19
2023-06-19T15:40:03.400Z,101201.75
2023-06-19T15:42:32.372Z,101192.97
2023-06-19T15:45:00.436Z,101200.75
2023-06-19T15:47:28.208Z,101202.28
2023-06-19T15:49:57.264Z,101204.94
2023-06-19T15:52:25.090Z,101197.94
2023-06-19T15:54:52.999Z,101200.34
2023-06-19T15:57:20.765Z,101198.06
2023-06-19T15:59:52.729Z,101204.34
2023-06-19T16:02:20.817Z,101198.50
2023-06-19T16:04:48.620Z,101204.44
2023-06-19T16:07:17.621Z,101223.00
2023-06-19T16:12:16.093Z,101207.16
2023-06-19T16:14:43.801Z,101214.34
2023-06-19T16:17:12.236Z,101209.19
2023-06-19T16:19:40.000Z,101211.75
2023-06-19T16:22:07.761Z,101215.84
2023-06-19T16:24:36.797Z,101217.41
2023-06-19T16:27:04.748Z,101214.66
2023-06-19T16:29:32.570Z,101216.50
2023-06-19T16:32:08.778Z,101214.78
2023-06-19T16:34:37.172Z,101223.31
2023-06-19T16:37:05.194Z,101217.28
2023-06-19T16:39:33.342Z,101211.97
2023-06-19T16:42:03.015Z,101220.34
2023-06-19T16:44:30.840Z,101212.63
2023-06-19T16:46:58.557Z,101213.38
2023-06-19T16:49:26.330Z,101216.91
2023-06-19T16:51:54.048Z,101217.97
2023-06-19T16:54:21.861Z,101212.81
2023-06-19T16:56:49.566Z,101213.66
2023-06-19T16:59:18.907Z,101220.22
2023-06-19T17:01:47.991Z,101218.31
2023-06-19T17:04:15.814Z,101218.59
2023-06-19T17:06:43.580Z,101225.63
2023-06-19T17:09:11.293Z,101231.50
2023-06-19T17:11:42.499Z,101233.72
2023-06-19T17:14:10.776Z,101231.53
2023-06-19T17:16:39.958Z,101232.91
2023-06-19T17:19:07.725Z,101240.53
2023-06-19T17:21:35.674Z,101240.22
2023-06-19T17:24:03.501Z,101247.06
2023-06-19T17:26:31.277Z,101251.69
2023-06-19T17:28:59.165Z,101255.22
2023-06-19T17:31:26.849Z,101250.59
2023-06-19T17:33:55.943Z,101257.94
2023-06-19T17:36:23.644Z,101256.88
2023-06-19T17:38:51.402Z,101255.22
2023-06-19T17:41:19.116Z,101253.31
2023-06-19T17:43:46.842Z,101251.97
2023-06-19T17:46:14.529Z,101247.91
2023-06-19T17:48:43.204Z,101250.59
2023-06-19T17:51:12.424Z,101252.25
2023-06-19T17:53:40.863Z,101254.44
2023-06-19T17:56:08.578Z,101258.22
2023-06-19T17:58:36.613Z,101261.22
2023-06-19T18:01:04.302Z,101256.03
2023-06-19T18:03:32.737Z,101263.94
2023-06-19T18:06:00.610Z,101266.38
2023-06-19T18:08:29.604Z,101264.75
2023-06-19T18:10:58.845Z,101266.94
2023-06-19T18:13:26.724Z,101259.88
2023-06-19T18:16:10.719Z,101258.19
2023-06-19T18:18:40.051Z,101267.75
2023-06-19T18:21:07.825Z,101273.75
2023-06-19T18:23:36.943Z,101267.47
2023-06-19T18:26:04.616Z,101267.47
2023-06-19T18:28:32.453Z,101271.53
2023-06-19T18:31:00.330Z,101278.31
2023-06-19T18:33:28.005Z,101289.22
2023-06-19T18:35:55.735Z,101284.34
2023-06-19T18:38:23.483Z,101285.72
2023-06-19T18:40:52.681Z,101291.16
2023-06-19T18:43:20.371Z,101291.44
2023-06-19T18:45:48.299Z,101293.63
2023-06-19T18:48:16.136Z,101298.25
2023-06-19T18:50:43.905Z,101305.34
2023-06-19T18:53:12.391Z,101300.72
2023-06-19T18:55:41.317Z,101306.16
2023-06-19T18:58:12.323Z,101309.38
2023-06-19T19:00:40.169Z,101308.03
2023-06-19T19:03:08.748Z,101314.81
2023-06-19T19:05:37.070Z,101308.72
2023-06-19T19:08:05.192Z,101312.25
2023-06-19T19:10:32.875Z,101307.00
2023-06-19T19:13:00.966Z,101307.28
2023-06-19T19:15:29.984Z,101314.63
2023-06-19T19:17:57.950Z,101319.81
2023-06-19T19:20:26.283Z,101329.81
2023-06-19T19:22:54.197Z,101323.00
2023-06-19T19:25:21.888Z,101328.72
2023-06-19T19:27:49.553Z,101331.03
2023-06-19T19:30:17.364Z,101335.22
2023-06-19T19:32:46.607Z,101334.72
2023-06-19T19:35:14.293Z,101337.41
2023-06-19T19:37:42.005Z,101335.81
2023-06-19T19:40:11.032Z,101338.63
2023-06-19T19:42:38.720Z,101348.34
2023-06-19T19:45:07.255Z,101352.41
2023-06-19T19:47:36.182Z,101353.19
2023-06-19T19:50:05.815Z,101350.59
2023-06-19T19:52:33.490Z,101350.34
2023-06-19T19:55:01.223Z,101353.63
2023-06-19T19:57:28.832Z,101358.50
2023-06-19T19:59:56.477Z,101359.94
2023-06-19T20:02:24.237Z,101370.34
2023-06-19T20:04:53.249Z,101367.47
2023-06-19T20:07:22.333Z,101374.00
2023-06-19T20:09:50.005Z,101379.81
2023-06-19T20:12:21.834Z,101383.13
2023-06-19T20:14:50.085Z,101379.16
2023-06-19T20:17:17.779Z,101386.34
2023-06-19T20:19:45.720Z,101391.03
2023-06-19T20:22:13.522Z,101393.28
2023-06-19T20:24:42.590Z,101395.88
2023-06-19T20:27:11.237Z,101403.53
2023-06-19T20:29:38.959Z,101399.66
2023-06-19T20:32:07.667Z,101414.09
2023-06-19T20:34:35.347Z,101404.25
2023-06-19T20:37:03.893Z,101405.19
2023-06-19T20:39:32.038Z,101404.81
2023-06-19T20:42:03.521Z,101394.94
2023-06-19T20:44:31.577Z,101392.72
2023-06-19T20:47:01.636Z,101404.25
2023-06-19T20:49:29.549Z,101393.28
2023-06-19T20:51:57.319Z,101396.25
2023-06-19T20:54:24.987Z,101396.13
2023-06-19T20:56:52.659Z,101398.22
2023-06-19T20:59:21.991Z,101395.16
2023-06-19T21:01:49.735Z,101396.91
2023-06-19T21:04:17.670Z,101402.75
2023-06-19T21:06:46.074Z,101395.09
2023-06-19T21:09:15.364Z,101401.44
2023-06-19T21:11:44.619Z,101397.78
2023-06-19T21:14:12.625Z,101399.53
2023-06-19T21:16:41.740Z,101401.06
2023-06-19T21:19:09.547Z,101391.53
2023-06-19T21:21:37.161Z,101399.50
2023-06-19T21:24:05.322Z,101408.06
2023-06-19T21:26:32.999Z,101406.88
2023-06-19T21:29:00.720Z,101407.59
2023-06-19T21:31:28.340Z,101406.63
2023-06-19T21:33:57.841Z,101413.53
2023-06-19T21:36:25.482Z,101420.88
2023-06-19T21:38:53.156Z,101418.88
2023-06-19T21:41:21.044Z,101418.50
2023-06-19T21:43:49.032Z,101418.34
2023-06-19T21:46:16.828Z,101429.81
2023-06-19T21:48:44.546Z,101429.69
2023-06-19T21:51:13.616Z,101428.25
2023-06-19T21:53:41.307Z,101432.69
2023-06-19T21:56:08.970Z,101429.78
2023-06-19T21:58:36.706Z,101423.59
2023-06-19T22:01:04.491Z,101418.88
2023-06-19T22:03:32.206Z,101428.25
2023-06-19T22:06:00.625Z,101419.75
2023-06-19T22:08:41.516Z,101436.63
2023-06-19T22:11:10.272Z,101430.84
2023-06-19T22:13:37.979Z,101428.63
2023-06-19T22:16:05.998Z,101427.41
2023-06-19T22:18:33.714Z,101431.16
2023-06-19T22:21:02.629Z,101425.16
2023-06-19T22:23:31.965Z,101434.50
2023-06-19T22:26:00.032Z,101433.09
2023-06-19T22:28:27.743Z,101430.00
2023-06-19T22:30:55.531Z,101436.44
2023-06-19T22:33:23.282Z,101439.81
2023-06-19T22:35:50.923Z,101436.53
2023-06-19T22:38:18.610Z,101435.06
2023-06-19T22:40:47.715Z,101441.72
2023-06-19T22:43:15.500Z,101436.78
2023-06-19T22:45:43.380Z,101431.03
2023-06-19T22:48:11.175Z,101432.06
2023-06-19T22:50:39.023Z,101436.88
2023-06-19T22:53:06.785Z,101428.63
2023-06-19T22:55:34.432Z,101431.53
2023-06-19T22:58:03.840Z,101436.53
2023-06-19T23:00:31.504Z,101436.75
2023-06-19T23:02:59.354Z,101444.47
2023-06-19T23:05:27.596Z,101436.81
2023-06-19T23:07:56.647Z,101448.03
2023-06-19T23:10:24.277Z,101445.16
2023-06-19T23:12:51.982Z,101433.41
2023-06-19T23:15:21.215Z,101439.44
2023-06-19T23:17:49.171Z,101445.69
2023-06-19T23:20:18.570Z,101446.75
2023-06-19T23:22:48.789Z,101449.47
2023-06-19T23:25:16.744Z,101444.38
2023-06-19T23:27:44.448Z,101445.22
2023-06-19T23:30:12.771Z,101445.66
2023-06-19T23:32:41.902Z,101453.56
2023-06-19T23:35:10.410Z,101459.16
2023-06-19T23:37:38.179Z,101452.56
2023-06-19T23:40:08.859Z,101452.38
2023-06-19T23:42:36.820Z,101449.91
2023-06-19T23:45:04.918Z,101447.84
2023-06-19T23:47:32.693Z,101441.47
2023-06-19T23:50:01.859Z,101442.72
2023-06-19T23:52:42.134Z,101438.00
2023-06-19T23:55:11.225Z,101445.84
2023-06-19T23:57:38.891Z,101449.81
